Time;durP1;ratioP1;P1;durP2;ratioP2;P2;SDS_P1;SDS_P2;PMS_P1;PMS_P2;Temp;Humidity;BMP_temperature;BMP_pressure;BME280_temperature;BME280_humidity;BME280_pressure;Samples;Min_cycle;Max_cycle;Signal;HPM_P1;HPM_P2
2024/03/23 00:00:13;;;;;;;23.98;4.28;;;;;;;-146.25;100.00;52526.34;2096967;28;20105;-63
2024/03/23 00:01:15;;;;;;;26.15;3.47;;;;;;;-146.25;100.00;52575.00;2097321;28;20049;-63
2024/03/23 00:02:21;;;;;;;23.33;3.30;;;;;;;-146.25;100.00;52540.53;2096762;28;20037;-63
2024/03/23 00:03:23;;;;;;;28.40;4.15;;;;;;;-146.25;100.00;52550.69;2097553;28;20127;-63
2024/03/23 00:04:26;;;;;;;23.58;3.65;;;;;;;-146.25;100.00;52550.69;2097109;28;20841;-63
2024/03/23 00:05:28;;;;;;;23.88;3.40;;;;;;;-146.25;100.00;52558.78;2096886;28;21057;-63
2024/03/23 00:06:31;;;;;;;26.23;3.95;;;;;;;-146.25;100.00;52550.69;2097530;28;20076;-63
2024/03/23 00:07:33;;;;;;;22.75;3.97;;;;;;;-146.25;100.00;52544.59;2096869;28;20172;-63
2024/03/23 00:08:36;;;;;;;28.48;4.13;;;;;;;-146.25;100.00;52548.66;2097208;28;20033;-63
2024/03/23 00:09:38;;;;;;;25.65;3.70;;;;;;;-146.25;100.00;52528.38;2096435;28;20976;-63
2024/03/23 00:10:41;;;;;;;27.08;4.60;;;;;;;-146.25;100.00;52544.59;2096954;28;20821;-63
2024/03/23 00:11:45;;;;;;;26.92;3.55;;;;;;;-146.25;100.00;52536.50;2096957;28;20037;-62
2024/03/23 00:12:48;;;;;;;23.63;3.97;;;;;;;-146.25;100.00;52546.63;2088674;28;20834;-63
2024/03/23 00:13:50;;;;;;;23.25;3.70;;;;;;;-146.25;100.00;52520.28;2097269;28;20080;-63
2024/03/23 00:14:53;;;;;;;23.88;4.07;;;;;;;-146.25;100.00;52536.50;2096500;28;20044;-62
2024/03/23 00:15:55;;;;;;;30.55;4.32;;;;;;;-146.25;100.00;52538.53;2096945;28;20118;-63
2024/03/23 00:16:57;;;;;;;28.88;4.28;;;;;;;-146.25;100.00;52520.28;2096820;28;20048;-62
2024/03/23 00:18:00;;;;;;;32.65;3.92;;;;;;;-146.25;100.00;52570.97;2097001;28;20906;-63
2024/03/23 00:19:03;;;;;;;26.95;4.15;;;;;;;-146.25;100.00;52510.13;2096862;28;20950;-62
2024/03/23 00:20:05;;;;;;;29.55;4.25;;;;;;;-146.25;100.00;52560.81;2096596;28;20033;-64
2024/03/23 00:21:09;;;;;;;29.58;4.32;;;;;;;-146.25;100.00;52558.78;2088545;28;20073;-63
2024/03/23 00:22:11;;;;;;;24.13;4.25;;;;;;;-146.25;100.00;52546.63;2089077;28;20029;-63
2024/03/23 00:23:13;;;;;;;22.27;3.88;;;;;;;-146.25;100.00;52500.00;2096481;28;20243;-64
2024/03/23 00:24:16;;;;;;;25.83;3.50;;;;;;;-146.25;100.00;52542.56;2097044;28;20078;-63
2024/03/23 00:25:18;;;;;;;31.33;3.90;;;;;;;-146.25;100.00;52506.06;2104899;28;20040;-63
2024/03/23 00:26:21;;;;;;;25.35;4.30;;;;;;;-146.25;100.00;52526.34;2096960;28;20033;-65
2024/03/23 00:27:23;;;;;;;25.23;3.22;;;;;;;-146.25;100.00;52518.25;2096804;28;20080;-65
2024/03/23 00:28:26;;;;;;;22.23;3.30;;;;;;;-146.25;100.00;52532.44;2097376;28;20132;-63
2024/03/23 00:29:30;;;;;;;29.33;3.67;;;;;;;-146.25;100.00;52524.31;2096832;28;20041;-63
2024/03/23 00:30:36;;;;;;;17.30;2.97;;;;;;;-146.25;100.00;52562.84;2097127;28;20045;-63
2024/03/23 00:31:38;;;;;;;22.30;3.38;;;;;;;-146.25;100.00;52506.06;2089117;28;20033;-63
2024/03/23 00:32:40;;;;;;;26.42;3.45;;;;;;;-146.25;100.00;52524.31;2088672;28;20139;-64
2024/03/23 00:33:43;;;;;;;21.05;3.20;;;;;;;-146.25;100.00;52544.59;2096845;28;20041;-63
2024/03/23 00:34:45;;;;;;;23.45;3.70;;;;;;;-146.25;100.00;52542.56;2096971;28;20818;-63
2024/03/23 00:35:48;;;;;;;27.92;3.47;;;;;;;-146.25;100.00;52540.53;2096539;28;20925;-64
2024/03/23 00:36:50;;;;;;;23.92;3.80;;;;;;;-146.25;100.00;52562.84;2105234;28;20036;-63
2024/03/23 00:37:55;;;;;;;26.63;3.15;;;;;;;-146.25;100.00;52504.03;2105158;28;20138;-64
2024/03/23 00:38:58;;;;;;;25.80;3.97;;;;;;;-146.25;100.00;52546.63;2097062;28;20052;-64
2024/03/23 00:40:00;;;;;;;26.08;3.65;;;;;;;-146.25;100.00;52546.63;2096536;28;20045;-64
2024/03/23 00:41:02;;;;;;;24.65;4.07;;;;;;;-146.25;100.00;52542.56;2096905;28;20041;-64
2024/03/23 00:42:05;;;;;;;32.53;4.35;;;;;;;-146.25;100.00;52526.34;2096880;28;20119;-64
2024/03/23 00:43:07;;;;;;;28.48;3.88;;;;;;;-146.25;100.00;52534.47;2096764;28;20037;-65
2024/03/23 00:44:10;;;;;;;27.42;4.45;;;;;;;-146.25;100.00;52581.09;2088529;28;20041;-65
2024/03/23 00:45:12;;;;;;;26.27;3.78;;;;;;;-146.25;100.00;52564.88;2096695;28;20063;-64
2024/03/23 00:46:14;;;;;;;30.13;4.03;;;;;;;-146.25;100.00;52550.69;2096736;28;20953;-64
2024/03/23 00:47:17;;;;;;;25.00;3.83;;;;;;;-146.25;100.00;52518.25;2096884;28;20936;-64
2024/03/23 00:48:19;;;;;;;27.17;4.50;;;;;;;-146.25;100.00;52534.47;2096375;28;20041;-63
2024/03/23 00:49:22;;;;;;;24.08;3.60;;;;;;;-146.25;100.00;52540.53;2096775;28;20030;-63
2024/03/23 00:50:24;;;;;;;34.03;3.90;;;;;;;-146.25;100.00;52526.34;2095910;28;20040;-62
2024/03/23 00:51:26;;;;;;;28.80;3.95;;;;;;;-146.25;100.00;52530.41;2094635;28;21097;-64
2024/03/23 00:52:28;;;;;;;24.67;3.42;;;;;;;-146.25;100.00;52585.16;2088083;28;20799;-64
2024/03/23 00:53:30;;;;;;;29.27;3.53;;;;;;;-146.25;100.00;52530.41;2088364;28;20041;-64
2024/03/23 00:54:31;;;;;;;28.48;3.38;;;;;;;-146.25;100.00;52536.50;2096629;28;20048;-64
2024/03/23 00:55:32;;;;;;;24.15;3.72;;;;;;;-146.25;100.00;52514.19;2087920;28;20487;-64
2024/03/23 00:56:32;;;;;;;28.63;3.55;;;;;;;-146.25;100.00;52542.56;2088472;28;20045;-65
2024/03/23 00:57:33;;;;;;;28.00;4.25;;;;;;;-146.25;100.00;52554.75;2096799;28;20045;-65
2024/03/23 00:58:34;;;;;;;28.85;4.47;;;;;;;-146.25;100.00;52546.63;2096717;28;20087;-63
2024/03/23 00:59:37;;;;;;;24.63;3.63;;;;;;;-146.25;100.00;52520.28;2105243;28;20050;-62
2024/03/23 01:00:38;;;;;;;26.67;3.38;;;;;;;-146.25;100.00;52516.22;2104838;28;20126;-63
2024/03/23 01:01:39;;;;;;;24.67;4.00;;;;;;;-146.25;100.00;52568.94;2096800;28;20037;-63
2024/03/23 01:02:40;;;;;;;25.10;3.95;;;;;;;-146.25;100.00;52546.63;2096743;28;20033;-62
2024/03/23 01:03:41;;;;;;;31.08;3.95;;;;;;;-146.25;100.00;52522.28;2088129;28;20491;-63
2024/03/23 01:04:42;;;;;;;30.92;4.18;;;;;;;-146.25;100.00;52556.75;2088443;28;20048;-62
2024/03/23 01:05:42;;;;;;;29.60;3.92;;;;;;;-146.25;100.00;52546.63;2104526;28;20454;-64
2024/03/23 01:06:43;;;;;;;26.02;4.45;;;;;;;-146.25;100.00;52518.25;2096606;28;20041;-64
2024/03/23 01:07:46;;;;;;;25.40;3.30;;;;;;;-146.25;100.00;52566.91;2096789;28;20044;-62
2024/03/23 01:08:47;;;;;;;26.40;3.85;;;;;;;-146.25;100.00;52554.75;2104811;28;20067;-63
2024/03/23 01:09:48;;;;;;;20.17;3.33;;;;;;;-146.25;100.00;52518.25;2105032;28;20103;-63
2024/03/23 01:11:04;;;;;;;22.20;3.38;;;;;;;-146.25;100.00;52514.19;2105090;28;20037;-62
2024/03/23 01:12:05;;;;;;;23.73;4.10;;;;;;;-146.25;100.00;52526.34;2105210;28;20041;-63
2024/03/23 01:13:06;;;;;;;22.63;3.40;;;;;;;-146.25;100.00;52528.38;2105196;28;20029;-63
2024/03/23 01:14:07;;;;;;;32.80;4.53;;;;;;;-146.25;100.00;52534.47;2104731;28;20111;-63
2024/03/23 01:15:08;;;;;;;33.10;4.40;;;;;;;-146.25;100.00;52534.47;2096179;28;20452;-63
2024/03/23 01:16:09;;;;;;;33.65;4.00;;;;;;;-146.25;100.00;52573.00;2105194;28;20055;-63
2024/03/23 01:17:10;;;;;;;25.25;4.28;;;;;;;-146.25;100.00;52556.75;2105092;28;20037;-63
2024/03/23 01:18:14;;;;;;;31.48;4.53;;;;;;;-146.25;100.00;52522.28;2096835;28;20045;-65
2024/03/23 01:19:14;;;;;;;26.25;4.03;;;;;;;-146.25;100.00;52542.56;2096797;28;20037;-63
2024/03/23 01:20:16;;;;;;;22.17;3.72;;;;;;;-146.25;100.00;52558.78;2096550;28;20045;-63
2024/03/23 01:21:17;;;;;;;21.75;3.30;;;;;;;-146.25;100.00;52546.63;2095341;28;20996;-63
2024/03/23 01:22:18;;;;;;;26.15;4.15;;;;;;;-146.25;100.00;52554.75;2096572;28;20040;-63
2024/03/23 01:23:18;;;;;;;28.60;4.38;;;;;;;-146.25;100.00;52504.03;2096807;28;20492;-62
2024/03/23 01:24:19;;;;;;;37.28;4.55;;;;;;;-146.25;100.00;52542.56;2096546;28;20041;-63
2024/03/23 01:25:20;;;;;;;35.20;4.60;;;;;;;-146.25;100.00;52554.75;2096417;28;20045;-63
2024/03/23 01:26:22;;;;;;;24.80;3.85;;;;;;;-146.25;100.00;52526.34;2088216;28;20042;-65
2024/03/23 01:27:25;;;;;;;27.77;4.80;;;;;;;-146.25;100.00;52556.75;2096463;28;20041;-63
2024/03/23 01:28:26;;;;;;;22.00;3.70;;;;;;;-146.25;100.00;52554.75;2113457;28;20198;-62
2024/03/23 01:29:26;;;;;;;31.58;4.75;;;;;;;-146.25;100.00;52558.78;2113417;28;20047;-62
2024/03/23 01:30:27;;;;;;;25.77;4.25;;;;;;;-146.25;100.00;52534.47;2113253;28;20441;-62
2024/03/23 01:31:28;;;;;;;30.80;3.95;;;;;;;-146.25;100.00;52522.28;2113302;28;21005;-62
2024/03/23 01:32:31;;;;;;;33.95;4.28;;;;;;;-146.25;100.00;52512.16;2104626;28;20425;-62
2024/03/23 01:33:34;;;;;;;25.23;4.25;;;;;;;-146.25;100.00;52560.81;2104753;28;20126;-63
2024/03/23 01:34:35;;;;;;;29.88;4.65;;;;;;;-146.25;100.00;52583.13;2096914;28;20041;-64
2024/03/23 01:35:35;;;;;;;27.98;5.00;;;;;;;-146.25;100.00;52556.75;2096195;28;20064;-62
2024/03/23 01:36:41;;;;;;;25.83;4.55;;;;;;;-146.25;100.00;52526.34;2096060;28;20045;-63
2024/03/23 01:37:42;;;;;;;26.27;4.25;;;;;;;-146.25;100.00;52542.56;2096671;28;20049;-62
2024/03/23 01:38:42;;;;;;;33.13;4.97;;;;;;;-146.25;100.00;52597.31;2096237;28;20111;-63
2024/03/23 01:39:47;;;;;;;23.25;3.95;;;;;;;-146.25;100.00;52548.66;2087861;28;20049;-62
2024/03/23 01:40:47;;;;;;;28.73;3.95;;;;;;;-146.25;100.00;52534.47;2096459;28;20099;-63
2024/03/23 01:41:48;;;;;;;29.95;5.05;;;;;;;-146.25;100.00;52575.00;2096604;28;20041;-62
2024/03/23 01:43:03;;;;;;;27.08;4.20;;;;;;;-146.25;100.00;52520.28;2104930;28;20547;-62
2024/03/23 01:44:08;;;;;;;31.10;4.65;;;;;;;-146.25;100.00;52575.00;2096661;28;20064;-63
2024/03/23 01:45:09;;;;;;;30.63;4.80;;;;;;;-146.25;100.00;52546.63;2097575;28;20802;-63
2024/03/23 01:46:11;;;;;;;30.45;4.00;;;;;;;-146.25;100.00;52550.69;2096366;28;20115;-63
2024/03/23 01:47:12;;;;;;;23.10;4.15;;;;;;;-146.25;100.00;52581.09;2088101;28;20041;-62
2024/03/23 01:48:13;;;;;;;27.73;4.43;;;;;;;-146.25;100.00;52522.28;2087821;28;20037;-63
2024/03/23 01:49:14;;;;;;;26.15;5.05;;;;;;;-146.25;100.00;52526.34;2096371;28;20719;-63
2024/03/23 01:50:15;;;;;;;31.33;4.28;;;;;;;-146.25;100.00;52562.84;2096414;28;20041;-64
2024/03/23 01:51:16;;;;;;;29.30;4.35;;;;;;;-146.25;100.00;52558.78;2087611;28;20045;-63
2024/03/23 01:52:17;;;;;;;24.05;4.22;;;;;;;-146.25;100.00;52506.06;2096318;28;20056;-63
2024/03/23 01:53:22;;;;;;;25.85;4.28;;;;;;;-146.25;100.00;52554.75;2096625;28;20041;-62
2024/03/23 01:54:23;;;;;;;25.67;3.72;;;;;;;-146.25;100.00;52558.78;2088513;28;20037;-63
2024/03/23 01:55:24;;;;;;;28.05;4.45;;;;;;;-146.25;100.00;52583.13;2087744;28;20034;-63
2024/03/23 01:56:25;;;;;;;31.48;5.15;;;;;;;-146.25;100.00;52550.69;2087826;28;20912;-63
2024/03/23 01:57:26;;;;;;;37.97;4.63;;;;;;;-146.25;100.00;52542.56;2088441;28;20162;-63
2024/03/23 01:58:27;;;;;;;31.25;4.40;;;;;;;-146.25;100.00;52564.88;2095733;28;20115;-63
2024/03/23 01:59:28;;;;;;;25.75;4.47;;;;;;;-146.25;100.00;52554.75;2087771;28;20037;-63
2024/03/23 02:00:29;;;;;;;23.35;4.18;;;;;;;-146.25;100.00;52554.75;2096388;28;20060;-63
2024/03/23 02:01:30;;;;;;;29.00;3.65;;;;;;;-146.25;100.00;52526.34;2096444;28;20205;-63
2024/03/23 02:02:31;;;;;;;28.00;4.32;;;;;;;-146.25;100.00;52512.16;2104675;28;20041;-62
2024/03/23 02:03:32;;;;;;;30.08;5.13;;;;;;;-146.25;100.00;52534.47;2096181;28;20582;-62
2024/03/23 02:04:32;;;;;;;29.90;4.50;;;;;;;-146.25;100.00;52518.25;2096201;28;20033;-62
2024/03/23 02:05:33;;;;;;;28.75;4.43;;;;;;;-146.25;100.00;52538.53;2096350;28;20048;-62
2024/03/23 02:06:34;;;;;;;27.48;4.68;;;;;;;-146.25;100.00;52560.81;2095965;28;20124;-64
2024/03/23 02:07:38;;;;;;;27.23;4.38;;;;;;;-146.25;100.00;52554.75;2088240;28;20042;-62
2024/03/23 02:08:40;;;;;;;28.38;3.88;;;;;;;-146.25;100.00;52556.75;2096665;28;20038;-62
2024/03/23 02:09:40;;;;;;;24.17;4.20;;;;;;;-146.25;100.00;52552.72;2087837;28;20038;-63
2024/03/23 02:10:42;;;;;;;27.95;4.88;;;;;;;-146.25;100.00;52534.47;2087655;28;20065;-63
2024/03/23 02:11:43;;;;;;;29.23;4.18;;;;;;;-146.25;100.00;52510.13;2088157;28;20044;-63
2024/03/23 02:12:44;;;;;;;32.88;4.32;;;;;;;-146.25;100.00;52562.84;2096070;28;20052;-63
2024/03/23 02:13:45;;;;;;;30.90;4.63;;;;;;;-146.25;100.00;52552.72;2096471;28;20099;-63
2024/03/23 02:14:46;;;;;;;31.50;4.50;;;;;;;-146.25;100.00;52542.56;2096210;28;20143;-63
2024/03/23 02:15:47;;;;;;;35.47;4.65;;;;;;;-146.25;100.00;52542.56;2096314;28;20048;-64
2024/03/23 02:16:48;;;;;;;22.23;4.25;;;;;;;-146.25;100.00;52534.47;2095919;28;20040;-63
2024/03/23 02:17:49;;;;;;;26.92;4.60;;;;;;;-146.25;100.00;52548.66;2096564;28;20079;-63
2024/03/23 02:18:50;;;;;;;30.52;4.82;;;;;;;-146.25;100.00;52550.69;2088175;28;20096;-64
2024/03/23 02:19:51;;;;;;;24.83;4.47;;;;;;;-146.25;100.00;52566.91;2087894;28;20046;-64
2024/03/23 02:20:51;;;;;;;32.47;4.07;;;;;;;-146.25;100.00;52550.69;2096005;28;20483;-65
2024/03/23 02:21:52;;;;;;;25.50;4.57;;;;;;;-146.25;100.00;52575.00;2095719;28;20068;-63
2024/03/23 02:22:53;;;;;;;26.98;4.88;;;;;;;-146.25;100.00;52536.50;2095995;28;20515;-64
2024/03/23 02:23:54;;;;;;;28.13;4.75;;;;;;;-146.25;100.00;52544.59;2096473;28;20041;-64
2024/03/23 02:24:55;;;;;;;24.38;4.60;;;;;;;-146.25;100.00;52554.75;2096135;28;20045;-63
2024/03/23 02:25:56;;;;;;;29.95;5.05;;;;;;;-146.25;100.00;52546.63;2096233;28;20045;-65
2024/03/23 02:26:57;;;;;;;30.35;4.90;;;;;;;-146.25;100.00;52528.38;2096135;28;20029;-64
2024/03/23 02:27:58;;;;;;;34.15;4.45;;;;;;;-146.25;100.00;52528.38;2095879;28;20044;-64
2024/03/23 02:28:59;;;;;;;25.33;4.07;;;;;;;-146.25;100.00;52536.50;2096434;28;20367;-63
2024/03/23 02:30:00;;;;;;;32.15;4.72;;;;;;;-146.25;100.00;52552.72;2096231;28;20029;-63
2024/03/23 02:31:02;;;;;;;30.83;5.22;;;;;;;-146.25;100.00;52548.66;2096120;28;20041;-63
2024/03/23 02:32:03;;;;;;;26.40;4.65;;;;;;;-146.25;100.00;52554.75;2104446;28;20040;-63
2024/03/23 02:33:04;;;;;;;35.58;5.13;;;;;;;-146.25;100.00;52560.81;2087574;28;20038;-63
2024/03/23 02:34:05;;;;;;;30.88;5.07;;;;;;;-146.25;100.00;52540.53;2089542;28;20030;-62
2024/03/23 02:35:06;;;;;;;33.47;5.10;;;;;;;-146.25;100.00;52579.06;2089384;28;20038;-63
2024/03/23 02:36:07;;;;;;;34.20;4.90;;;;;;;-146.25;100.00;52554.75;2097671;28;20049;-63
2024/03/23 02:37:13;;;;;;;28.67;4.97;;;;;;;-146.25;100.00;52526.34;2097327;28;20094;-63
2024/03/23 02:38:14;;;;;;;26.52;5.13;;;;;;;-146.25;100.00;52524.31;2098799;28;20845;-63
2024/03/23 02:39:15;;;;;;;22.27;4.85;;;;;;;-146.25;100.00;52542.56;2097693;28;20041;-63
2024/03/23 02:40:20;;;;;;;31.23;4.43;;;;;;;-146.25;100.00;52585.16;2097708;28;20079;-63
2024/03/23 02:41:23;;;;;;;29.38;5.10;;;;;;;-146.25;100.00;52558.78;2089932;28;20030;-63
2024/03/23 02:42:24;;;;;;;23.75;4.15;;;;;;;-146.25;100.00;52536.50;2098625;28;20026;-63
2024/03/23 02:43:25;;;;;;;32.33;5.05;;;;;;;-146.25;100.00;52546.63;2114596;28;20047;-63
2024/03/23 02:44:25;;;;;;;29.15;4.75;;;;;;;-146.25;100.00;52558.78;2105996;28;20078;-62
2024/03/23 02:45:26;;;;;;;29.17;4.40;;;;;;;-146.25;100.00;52577.03;2105870;28;20048;-63
2024/03/23 02:46:27;;;;;;;24.58;4.65;;;;;;;-146.25;100.00;52548.66;2097347;28;20120;-63
2024/03/23 02:47:28;;;;;;;22.73;4.78;;;;;;;-146.25;100.00;52544.59;2089184;28;20124;-64
2024/03/23 02:48:29;;;;;;;25.17;4.40;;;;;;;-146.25;100.00;52562.84;2097175;28;20072;-63
2024/03/23 02:49:29;;;;;;;32.50;4.70;;;;;;;-146.25;100.00;52575.00;2097669;28;20118;-63
2024/03/23 02:50:30;;;;;;;31.30;4.68;;;;;;;-146.25;100.00;52552.72;2097513;28;20428;-63
2024/03/23 02:51:31;;;;;;;30.73;5.32;;;;;;;-146.25;100.00;52540.53;2097097;28;20037;-64
2024/03/23 02:52:32;;;;;;;29.30;5.15;;;;;;;-146.25;100.00;52554.75;2097593;28;20142;-63
2024/03/23 02:53:33;;;;;;;33.00;4.68;;;;;;;-146.25;100.00;52550.69;2097465;28;20596;-63
2024/03/23 02:54:33;;;;;;;32.22;4.40;;;;;;;-146.25;100.00;52540.53;2097401;28;20103;-62
2024/03/23 02:55:35;;;;;;;31.08;4.80;;;;;;;-146.25;100.00;52566.91;2106115;28;20142;-63
2024/03/23 02:56:36;;;;;;;37.13;5.20;;;;;;;-146.25;100.00;52558.78;2105510;28;20044;-64
2024/03/23 02:57:37;;;;;;;27.52;4.32;;;;;;;-146.25;100.00;52497.97;2089369;28;20041;-62
2024/03/23 02:58:38;;;;;;;35.60;4.57;;;;;;;-146.25;100.00;52540.53;2088885;28;20431;-64
2024/03/23 02:59:38;;;;;;;36.55;4.88;;;;;;;-146.25;100.00;52558.78;2097329;28;20044;-63
2024/03/23 03:00:40;;;;;;;34.72;5.00;;;;;;;-146.25;100.00;52558.78;2091651;28;20107;-64
2024/03/23 03:01:41;;;;;;;34.45;4.93;;;;;;;-146.25;100.00;52577.03;2106036;28;20029;-64
2024/03/23 03:02:42;;;;;;;33.03;4.72;;;;;;;-146.25;100.00;52566.91;2114552;28;20040;-63
2024/03/23 03:03:43;;;;;;;27.30;4.68;;;;;;;-146.25;100.00;52522.28;2106020;28;20045;-63
2024/03/23 03:04:44;;;;;;;26.48;4.40;;;;;;;-146.25;100.00;52575.00;2097587;28;20032;-63
2024/03/23 03:05:45;;;;;;;18.80;4.10;;;;;;;-146.25;100.00;52550.69;2106075;28;20159;-63
2024/03/23 03:06:49;;;;;;;28.67;5.10;;;;;;;-146.25;100.00;52530.41;2105424;28;20036;-64
2024/03/23 03:07:50;;;;;;;29.95;4.75;;;;;;;-146.25;100.00;52534.47;2115064;27;21074;-63
2024/03/23 03:08:51;;;;;;;42.65;5.68;;;;;;;-146.25;100.00;52528.38;2114066;28;20044;-62
2024/03/23 03:09:51;;;;;;;31.52;5.57;;;;;;;-146.25;100.00;52548.66;2106043;28;20561;-63
2024/03/23 03:10:52;;;;;;;36.13;4.93;;;;;;;-146.25;100.00;52528.38;2105535;28;20428;-63
2024/03/23 03:11:53;;;;;;;25.17;3.85;;;;;;;-146.25;100.00;52560.81;2097330;28;20127;-63
2024/03/23 03:12:54;;;;;;;24.38;4.28;;;;;;;-146.25;100.00;52556.75;2097139;28;20033;-63
2024/03/23 03:13:54;;;;;;;25.17;4.57;;;;;;;-146.25;100.00;52532.44;2106074;28;20048;-63
2024/03/23 03:14:55;;;;;;;24.45;5.00;;;;;;;-146.25;100.00;52587.19;2105531;28;20094;-62
2024/03/23 03:15:58;;;;;;;28.05;4.60;;;;;;;-146.25;100.00;52536.50;2105647;28;20498;-63
2024/03/23 03:16:59;;;;;;;20.50;3.92;;;;;;;-146.25;100.00;52536.50;2106083;28;20045;-63
2024/03/23 03:18:00;;;;;;;27.45;4.20;;;;;;;-146.25;100.00;52544.59;2106030;28;20032;-63
2024/03/23 03:19:01;;;;;;;29.80;5.30;;;;;;;-146.25;100.00;52558.78;2114050;28;20500;-63
2024/03/23 03:20:04;;;;;;;37.90;4.95;;;;;;;-146.25;100.00;52544.59;2113977;28;20118;-63
2024/03/23 03:21:08;;;;;;;25.85;4.05;;;;;;;-146.25;100.00;52579.06;2113908;28;20028;-63
2024/03/23 03:22:09;;;;;;;27.52;4.47;;;;;;;-146.25;100.00;52546.63;2105235;28;20048;-64
2024/03/23 03:23:10;;;;;;;31.92;5.35;;;;;;;-146.25;100.00;52544.59;2097381;28;20045;-64
2024/03/23 03:24:11;;;;;;;31.88;4.68;;;;;;;-146.25;100.00;52575.00;2106264;28;20051;-63
2024/03/23 03:25:11;;;;;;;37.03;5.05;;;;;;;-146.25;100.00;52550.69;2105635;28;20049;-63
2024/03/23 03:26:12;;;;;;;30.77;5.50;;;;;;;-146.25;100.00;52530.41;2097273;28;20049;-63
2024/03/23 03:27:13;;;;;;;31.45;5.85;;;;;;;-146.25;100.00;52542.56;2105832;28;20068;-63
2024/03/23 03:28:14;;;;;;;37.58;6.03;;;;;;;-146.25;100.00;52564.88;2096898;28;20368;-63
2024/03/23 03:29:15;;;;;;;38.80;5.28;;;;;;;-146.25;100.00;52619.63;2097429;28;20052;-63
2024/03/23 03:30:16;;;;;;;29.60;5.05;;;;;;;-146.25;100.00;52542.56;2097141;28;20045;-63
2024/03/23 03:31:18;;;;;;;36.20;5.68;;;;;;;-146.25;100.00;52542.56;2097408;28;20041;-63
2024/03/23 03:32:19;;;;;;;32.75;5.22;;;;;;;-146.25;100.00;52583.13;2097013;28;20814;-63
2024/03/23 03:33:20;;;;;;;35.10;4.95;;;;;;;-146.25;100.00;52570.97;2097030;28;20041;-64
2024/03/23 03:34:21;;;;;;;31.73;5.38;;;;;;;-146.25;100.00;52540.53;2105651;28;20064;-63
2024/03/23 03:35:21;;;;;;;29.63;5.15;;;;;;;-146.25;100.00;52534.47;2105008;28;20429;-63
2024/03/23 03:36:22;;;;;;;27.73;4.60;;;;;;;-146.25;100.00;52518.25;2105321;28;20044;-63
2024/03/23 03:37:24;;;;;;;28.42;4.80;;;;;;;-146.25;100.00;52554.75;2097006;28;20132;-63
2024/03/23 03:38:25;;;;;;;24.95;4.38;;;;;;;-146.25;100.00;52522.28;2097256;28;20146;-63
2024/03/23 03:39:28;;;;;;;37.40;5.30;;;;;;;-146.25;100.00;52534.47;2097285;28;20045;-64
2024/03/23 03:40:29;;;;;;;24.90;4.45;;;;;;;-146.25;100.00;52585.16;2097027;28;20848;-63
2024/03/23 03:41:31;;;;;;;36.22;4.97;;;;;;;-146.25;100.00;52568.94;2097549;28;20041;-63
2024/03/23 03:42:32;;;;;;;30.25;4.95;;;;;;;-146.25;100.00;52570.97;2096992;28;20909;-63
2024/03/23 03:43:33;;;;;;;32.55;5.63;;;;;;;-146.25;100.00;52544.59;2096976;28;20049;-62
2024/03/23 03:44:34;;;;;;;22.88;4.93;;;;;;;-146.25;100.00;52542.56;2096835;28;20041;-62
2024/03/23 03:45:35;;;;;;;30.60;5.75;;;;;;;-146.25;100.00;52558.78;2097741;28;20033;-62
2024/03/23 03:46:35;;;;;;;37.90;5.28;;;;;;;-146.25;100.00;52502.03;2105613;28;20114;-62
2024/03/23 03:47:36;;;;;;;28.50;4.60;;;;;;;-146.25;100.00;52530.41;2096942;28;20167;-62
2024/03/23 03:48:37;;;;;;;35.60;5.43;;;;;;;-146.25;100.00;52581.09;2088482;28;20041;-64
2024/03/23 03:49:38;;;;;;;28.80;5.15;;;;;;;-146.25;100.00;52558.78;2096754;28;20902;-64
2024/03/23 03:50:39;;;;;;;31.73;4.78;;;;;;;-146.25;100.00;52579.06;2096450;28;20040;-63
2024/03/23 03:51:39;;;;;;;33.28;5.55;;;;;;;-146.25;100.00;52558.78;2096788;28;20037;-62
2024/03/23 03:52:40;;;;;;;35.47;5.00;;;;;;;-146.25;100.00;52575.00;2097234;28;20454;-63
2024/03/23 03:53:43;;;;;;;33.63;5.40;;;;;;;-146.25;100.00;52570.97;2097335;28;20045;-63
2024/03/23 03:54:47;;;;;;;43.40;5.25;;;;;;;-146.25;100.00;52550.69;2096813;28;20440;-63
2024/03/23 03:55:49;;;;;;;30.23;4.57;;;;;;;-146.25;100.00;52556.75;2097571;28;20042;-63
2024/03/23 03:56:49;;;;;;;42.08;5.65;;;;;;;-146.25;100.00;52532.44;2097265;28;20048;-62
2024/03/23 03:57:50;;;;;;;35.15;5.53;;;;;;;-146.25;100.00;52595.28;2097870;28;20755;-62
2024/03/23 03:58:51;;;;;;;35.30;5.22;;;;;;;-146.25;100.00;52581.09;2096898;28;20048;-63
2024/03/23 03:59:54;;;;;;;31.67;5.07;;;;;;;-146.25;100.00;52570.97;2088850;28;20117;-63
2024/03/23 04:00:55;;;;;;;34.03;5.50;;;;;;;-146.25;100.00;52550.69;2096926;28;20953;-63
2024/03/23 04:01:58;;;;;;;34.13;5.22;;;;;;;-146.25;100.00;52587.19;2089390;28;20038;-63
2024/03/23 04:02:59;;;;;;;42.00;5.60;;;;;;;-146.25;100.00;52564.88;2097262;28;20099;-63
2024/03/23 04:03:59;;;;;;;33.55;5.55;;;;;;;-146.25;100.00;52548.66;2096836;28;20040;-63
2024/03/23 04:05:00;;;;;;;39.88;5.65;;;;;;;-146.25;100.00;52548.66;2097145;28;20045;-63
2024/03/23 04:06:01;;;;;;;33.30;6.18;;;;;;;-146.25;100.00;52570.97;2105670;28;20048;-64
2024/03/23 04:07:02;;;;;;;32.88;5.28;;;;;;;-146.25;100.00;52573.00;2096438;28;20542;-63
2024/03/23 04:08:04;;;;;;;32.63;5.15;;;;;;;-146.25;100.00;52568.94;2097560;28;20115;-63
2024/03/23 04:09:06;;;;;;;33.90;5.25;;;;;;;-146.25;100.00;52548.66;2097236;28;20049;-63
2024/03/23 04:10:07;;;;;;;37.67;5.88;;;;;;;-146.25;100.00;52514.19;2097155;28;20037;-63
2024/03/23 04:11:08;;;;;;;35.22;5.25;;;;;;;-146.25;100.00;52556.75;2096940;28;20036;-63
2024/03/23 04:12:09;;;;;;;34.72;4.68;;;;;;;-146.25;100.00;52550.69;2096718;28;20045;-63
2024/03/23 04:13:10;;;;;;;31.33;5.05;;;;;;;-146.25;100.00;52542.56;2097164;28;20052;-64
2024/03/23 04:14:11;;;;;;;34.63;4.95;;;;;;;-146.25;100.00;52534.47;2097223;28;20045;-63
2024/03/23 04:15:12;;;;;;;50.08;6.30;;;;;;;-146.25;100.00;52566.91;2096299;28;20033;-63
2024/03/23 04:16:13;;;;;;;36.20;4.50;;;;;;;-146.25;100.00;52536.50;2097123;28;20037;-64
2024/03/23 04:17:14;;;;;;;39.63;5.18;;;;;;;-146.25;100.00;52566.91;2096957;28;20044;-63
2024/03/23 04:18:14;;;;;;;39.33;5.57;;;;;;;-146.25;100.00;52542.56;2105489;28;20486;-64
2024/03/23 04:19:19;;;;;;;37.58;5.07;;;;;;;-146.25;100.00;52579.06;2105419;28;20041;-63
2024/03/23 04:20:20;;;;;;;47.60;5.85;;;;;;;-146.25;100.00;52589.22;2097397;28;20881;-64
2024/03/23 04:21:22;;;;;;;40.60;6.03;;;;;;;-146.25;100.00;52585.16;2096987;28;20056;-64
2024/03/23 04:22:24;;;;;;;29.60;5.13;;;;;;;-146.25;100.00;52575.00;2104684;28;20043;-63
2024/03/23 04:23:25;;;;;;;36.90;5.43;;;;;;;-146.25;100.00;52562.84;2088887;28;20136;-63
2024/03/23 04:24:26;;;;;;;32.55;5.05;;;;;;;-146.25;100.00;52573.00;2088996;28;20565;-64
2024/03/23 04:25:27;;;;;;;29.13;5.03;;;;;;;-146.25;100.00;52560.81;2096726;28;20045;-64
2024/03/23 04:26:28;;;;;;;34.38;5.20;;;;;;;-146.25;100.00;52585.16;2096859;28;20041;-64
2024/03/23 04:27:29;;;;;;;40.38;5.50;;;;;;;-146.25;100.00;52544.59;2096891;28;20041;-64
2024/03/23 04:28:29;;;;;;;33.55;5.47;;;;;;;-146.25;100.00;52599.34;2097138;28;20138;-64
2024/03/23 04:29:30;;;;;;;41.65;5.97;;;;;;;-146.25;100.00;52556.75;2097334;28;20064;-64
2024/03/23 04:30:31;;;;;;;36.28;5.35;;;;;;;-146.25;100.00;52583.13;2096855;28;20048;-64
2024/03/23 04:31:34;;;;;;;27.27;4.55;;;;;;;-146.25;100.00;52587.19;2096842;28;20084;-64
2024/03/23 04:32:35;;;;;;;39.00;5.55;;;;;;;-146.25;100.00;52575.00;2097090;28;20143;-64
2024/03/23 04:33:36;;;;;;;27.65;4.38;;;;;;;-146.25;100.00;52544.59;2096917;28;20041;-64
2024/03/23 04:34:36;;;;;;;38.72;5.00;;;;;;;-146.25;100.00;52536.50;2096827;28;20123;-64
2024/03/23 04:35:37;;;;;;;38.08;5.07;;;;;;;-146.25;100.00;52554.75;2096973;28;20048;-64
2024/03/23 04:36:38;;;;;;;32.58;5.00;;;;;;;-146.25;100.00;52546.63;2088293;28;20100;-64